createdAt,value
2017-10-11T00:00:53.542Z,18
2017-10-11T00:01:55.926Z,18.1
2017-10-11T00:02:58.295Z,18.1
2017-10-11T00:04:01.042Z,18.1
2017-10-11T00:05:03.423Z,18.1
2017-10-11T00:06:05.804Z,18.1
2017-10-11T00:07:08.183Z,18.1
2017-10-11T00:08:10.562Z,18
2017-10-11T00:09:12.936Z,18
2017-10-11T00:10:15.324Z,18
2017-10-11T00:11:17.693Z,18
2017-10-11T00:12:20.078Z,18
2017-10-11T00:13:22.462Z,18
2017-10-11T00:14:24.836Z,18
2017-10-11T00:15:27.219Z,18
2017-10-11T00:16:29.971Z,18
2017-10-11T00:17:32.344Z,18
2017-10-11T00:18:34.728Z,18
2017-10-11T00:19:37.096Z,18
2017-10-11T00:20:39.681Z,18
2017-10-11T00:21:42.425Z,18
2017-10-11T00:22:45.001Z,18
2017-10-11T00:23:47.383Z,18
2017-10-11T00:24:49.764Z,18
2017-10-11T00:25:52.157Z,18
2017-10-11T00:26:54.531Z,18
2017-10-11T00:27:56.914Z,18
2017-10-11T00:28:59.297Z,18.1
2017-10-11T00:30:01.674Z,18.1
2017-10-11T00:31:04.059Z,18.1
2017-10-11T00:32:06.446Z,18.1
2017-10-11T00:33:08.814Z,18.1
2017-10-11T00:34:11.192Z,18.1
2017-10-11T00:35:13.565Z,18.1
2017-10-11T00:36:15.941Z,18.1
2017-10-11T00:37:18.315Z,18.1
2017-10-11T00:38:20.696Z,18.1
2017-10-11T00:39:23.073Z,18.1
2017-10-11T00:40:25.457Z,18.1
2017-10-11T00:41:27.837Z,18.1
2017-10-11T00:42:30.221Z,18.1
2017-10-11T00:43:32.601Z,18.1
2017-10-11T00:44:34.983Z,18.1
2017-10-11T00:45:37.357Z,18.1
2017-10-11T00:46:39.734Z,18.1
2017-10-11T00:47:42.124Z,18.1
2017-10-11T00:48:44.837Z,18.1
2017-10-11T00:49:47.217Z,18.1
2017-10-11T00:50:49.595Z,18.1
2017-10-11T00:51:51.961Z,18.1
2017-10-11T00:52:54.350Z,18.1
2017-10-11T00:53:56.729Z,18.1
2017-10-11T00:54:59.097Z,18.1
2017-10-11T00:56:01.484Z,18.1
2017-10-11T00:57:03.874Z,18.1
2017-10-11T00:58:06.241Z,18.1
2017-10-11T00:59:08.620Z,18.1
2017-10-11T01:00:11.013Z,18.1
2017-10-11T01:01:13.392Z,18.1
2017-10-11T01:02:15.769Z,18.1
2017-10-11T01:03:18.146Z,18.1
2017-10-11T01:04:20.517Z,18.1
2017-10-11T01:05:23.251Z,18.1
2017-10-11T01:06:25.628Z,18.1
2017-10-11T01:07:28.004Z,18
2017-10-11T01:08:30.378Z,18
2017-10-11T01:09:32.766Z,18
2017-10-11T01:10:35.152Z,18
2017-10-11T01:11:37.528Z,18
2017-10-11T01:12:39.905Z,18
2017-10-11T01:13:42.284Z,18
2017-10-11T01:14:44.663Z,18
2017-10-11T01:15:47.043Z,18
2017-10-11T01:16:49.409Z,18
2017-10-11T01:17:51.794Z,18
2017-10-11T01:18:54.169Z,18
2017-10-11T01:19:56.547Z,18
2017-10-11T01:20:58.936Z,18
2017-10-11T01:22:01.315Z,18
2017-10-11T01:23:04.050Z,18.1
2017-10-11T01:24:06.452Z,18.1
2017-10-11T01:25:08.804Z,18
2017-10-11T01:26:11.172Z,18
2017-10-11T01:27:13.555Z,18
2017-10-11T01:28:16.631Z,18
2017-10-11T01:29:19.014Z,18
2017-10-11T01:30:21.393Z,18
2017-10-11T01:31:23.769Z,18
2017-10-11T01:32:26.149Z,18
2017-10-11T01:33:28.537Z,18
2017-10-11T01:34:31.255Z,18
2017-10-11T01:35:33.641Z,18
2017-10-11T01:36:36.015Z,18
2017-10-11T01:37:38.401Z,18
2017-10-11T01:38:40.776Z,18
2017-10-11T01:39:43.161Z,18.1
2017-10-11T01:40:45.537Z,18.1
2017-10-11T01:41:47.919Z,18.1
2017-10-11T01:42:50.297Z,18.1
2017-10-11T01:43:52.683Z,18.1
2017-10-11T01:44:55.063Z,18
2017-10-11T01:45:57.443Z,18
2017-10-11T01:46:59.812Z,18
2017-10-11T01:48:02.207Z,18
2017-10-11T01:49:04.579Z,18
2017-10-11T01:50:06.956Z,18
2017-10-11T01:51:09.328Z,18
2017-10-11T01:52:11.709Z,18
2017-10-11T01:53:14.090Z,18
2017-10-11T01:54:16.468Z,18
2017-10-11T01:55:18.856Z,18
2017-10-11T01:56:21.224Z,18.1
2017-10-11T01:57:23.599Z,18.1
2017-10-11T01:58:25.976Z,18.1
2017-10-11T01:59:28.713Z,18.1
2017-10-11T02:00:31.093Z,18.1
2017-10-11T02:01:33.466Z,18.1
2017-10-11T02:02:36.217Z,18.2
2017-10-11T02:03:38.589Z,18.2
2017-10-11T02:04:41.326Z,18.2
2017-10-11T02:05:43.706Z,18.2
2017-10-11T02:06:46.075Z,18.2
2017-10-11T02:07:48.453Z,18.2
2017-10-11T02:08:50.838Z,18.2
2017-10-11T02:09:53.212Z,18.2
2017-10-11T02:10:55.594Z,18.2
2017-10-11T02:11:58.330Z,18.1
2017-10-11T02:13:00.707Z,18.1
2017-10-11T02:14:03.095Z,18.1
2017-10-11T02:15:05.474Z,18.1
2017-10-11T02:16:07.843Z,18.1
2017-10-11T02:17:10.229Z,18.1
2017-10-11T02:18:12.610Z,18.1
2017-10-11T02:19:14.986Z,18.1
2017-10-11T02:20:17.375Z,18.1
2017-10-11T02:21:19.737Z,18.1
2017-10-11T02:22:22.117Z,18.1
2017-10-11T02:23:24.508Z,18.1
2017-10-11T02:24:26.893Z,18.1
2017-10-11T02:25:29.257Z,18.1
2017-10-11T02:26:31.636Z,18.1
2017-10-11T02:27:34.022Z,18
2017-10-11T02:28:36.405Z,18
2017-10-11T02:29:38.780Z,18.1
2017-10-11T02:30:41.162Z,18
2017-10-11T02:31:43.536Z,18
2017-10-11T02:32:45.923Z,18
2017-10-11T02:33:48.302Z,18
2017-10-11T02:34:50.668Z,18.1
2017-10-11T02:35:53.050Z,18.1
2017-10-11T02:36:55.437Z,18.1
2017-10-11T02:37:57.817Z,18
2017-10-11T02:39:00.197Z,18
2017-10-11T02:40:02.912Z,18
2017-10-11T02:41:05.305Z,18
2017-10-11T02:42:07.679Z,18
2017-10-11T02:43:10.060Z,18
2017-10-11T02:44:12.785Z,18
2017-10-11T02:45:15.172Z,18
2017-10-11T02:46:17.547Z,18
2017-10-11T02:47:32.694Z,18
2017-10-11T02:48:35.122Z,18
2017-10-11T02:49:37.618Z,18
2017-10-11T02:50:40.043Z,18
2017-10-11T02:51:42.479Z,18
2017-10-11T02:52:44.909Z,18
2017-10-11T02:53:47.339Z,18
2017-10-11T02:54:49.778Z,18
2017-10-11T02:55:52.204Z,18
2017-10-11T02:56:54.647Z,17.9
2017-10-11T02:57:57.071Z,17.9
2017-10-11T02:58:59.500Z,17.9
2017-10-11T03:00:01.928Z,17.9
2017-10-11T03:01:04.362Z,17.9
2017-10-11T03:02:06.799Z,17.9
2017-10-11T03:03:09.231Z,17.9
2017-10-11T03:04:11.665Z,17.9
2017-10-11T03:05:14.101Z,17.9
2017-10-11T03:06:16.534Z,17.9
2017-10-11T03:07:18.971Z,17.9
2017-10-11T03:08:21.397Z,17.9
2017-10-11T03:09:24.197Z,17.9
2017-10-11T03:10:26.629Z,17.9
2017-10-11T03:11:29.440Z,17.9
2017-10-11T03:12:32.218Z,17.9
2017-10-11T03:13:34.649Z,17.9
2017-10-11T03:14:37.431Z,17.9
2017-10-11T03:15:39.867Z,17.9
2017-10-11T03:16:42.298Z,17.9
2017-10-11T03:17:44.725Z,17.9
2017-10-11T03:18:47.148Z,17.9
2017-10-11T03:19:49.589Z,17.9
2017-10-11T03:20:52.023Z,18
2017-10-11T03:21:54.464Z,17.9
2017-10-11T03:22:56.888Z,18
2017-10-11T03:23:59.678Z,18
2017-10-11T03:25:02.111Z,18
2017-10-11T03:26:04.895Z,18
2017-10-11T03:27:07.328Z,18
2017-10-11T03:28:09.761Z,18
2017-10-11T03:29:12.194Z,18
2017-10-11T03:30:14.641Z,18
2017-10-11T03:31:17.074Z,18
2017-10-11T03:32:19.509Z,18
2017-10-11T03:33:21.944Z,18.1
2017-10-11T03:34:24.770Z,18.1
2017-10-11T03:35:27.199Z,18.1
2017-10-11T03:36:29.629Z,18.1
2017-10-11T03:37:32.413Z,18.1
2017-10-11T03:38:34.852Z,18.1
2017-10-11T03:39:37.291Z,18.1
2017-10-11T03:40:39.722Z,18.1
2017-10-11T03:41:42.149Z,18.2
2017-10-11T03:42:44.581Z,18.1
2017-10-11T03:43:47.371Z,18.1
2017-10-11T03:44:49.815Z,18.2
2017-10-11T03:45:52.596Z,18.1
2017-10-11T03:46:55.030Z,18.1
2017-10-11T03:47:57.466Z,18.2
2017-10-11T03:48:59.899Z,18.2
2017-10-11T03:50:02.334Z,18.1
2017-10-11T03:51:05.137Z,18.2
2017-10-11T03:52:07.567Z,18.2
2017-10-11T03:53:10.005Z,18.2
2017-10-11T03:54:12.454Z,18.2
2017-10-11T03:55:14.884Z,18.2
2017-10-11T03:56:17.315Z,18.2
2017-10-11T03:57:19.746Z,18.2
2017-10-11T03:58:22.550Z,18.2
2017-10-11T03:59:24.990Z,18.2
2017-10-11T04:00:27.415Z,18.1
2017-10-11T04:01:29.845Z,18.2
2017-10-11T04:02:32.282Z,18.1
2017-10-11T04:03:34.713Z,18.2
2017-10-11T04:04:37.153Z,18.1
2017-10-11T04:05:39.927Z,18.2
2017-10-11T04:06:42.360Z,18.1
2017-10-11T04:07:44.800Z,18.1
2017-10-11T04:08:47.236Z,18.1
2017-10-11T04:09:49.666Z,18.2
2017-10-11T04:10:52.099Z,18.2
2017-10-11T04:11:54.549Z,18.1
2017-10-11T04:12:57.009Z,18.1
2017-10-11T04:13:59.443Z,18.2
2017-10-11T04:15:01.875Z,18.1
2017-10-11T04:16:04.308Z,18.1
2017-10-11T04:17:06.740Z,18.1
2017-10-11T04:18:09.174Z,18.1
2017-10-11T04:19:11.610Z,18.1
2017-10-11T04:20:14.034Z,18.1
2017-10-11T04:21:16.471Z,18.1
2017-10-11T04:22:19.262Z,18.1
2017-10-11T04:23:21.704Z,18.1
2017-10-11T04:24:24.131Z,18.1
2017-10-11T04:25:26.944Z,18.1
2017-10-11T04:26:29.732Z,18.1
2017-10-11T04:27:32.171Z,18.1
2017-10-11T04:28:34.600Z,18.1
2017-10-11T04:29:37.041Z,18.1
2017-10-11T04:30:39.466Z,18.1
2017-10-11T04:31:42.264Z,18.1
2017-10-11T04:32:44.694Z,18.1
2017-10-11T04:33:47.124Z,18.1
2017-10-11T04:34:49.562Z,18.1
2017-10-11T04:35:51.996Z,18.1
2017-10-11T04:36:54.418Z,18.1
2017-10-11T04:37:56.864Z,18.1
2017-10-11T04:38:59.649Z,18
2017-10-11T04:40:02.083Z,18.1
2017-10-11T04:41:04.515Z,18.1
2017-10-11T04:42:06.950Z,18.1
2017-10-11T04:43:09.742Z,18
2017-10-11T04:44:12.188Z,18.1
2017-10-11T04:45:14.608Z,18.1
2017-10-11T04:46:17.424Z,18.1
2017-10-11T04:47:19.860Z,18.1
2017-10-11T04:48:22.292Z,18.1
2017-10-11T04:49:24.722Z,18.1
2017-10-11T04:50:27.153Z,18.1
2017-10-11T04:51:29.584Z,18.1
2017-10-11T04:52:32.018Z,18
2017-10-11T04:53:34.463Z,18.1
2017-10-11T04:54:36.921Z,18.1
2017-10-11T04:55:39.351Z,18
2017-10-11T04:56:41.785Z,18.1
2017-10-11T04:57:44.236Z,18.1
2017-10-11T04:58:46.661Z,18
2017-10-11T04:59:49.097Z,18.1
2017-10-11T05:00:51.524Z,18.1
2017-10-11T05:01:53.957Z,18.1
2017-10-11T05:02:56.400Z,18.1
2017-10-11T05:03:58.831Z,18.1
2017-10-11T05:05:01.604Z,18.1
2017-10-11T05:06:04.037Z,18.1
2017-10-11T05:07:06.467Z,18.1
2017-10-11T05:08:08.913Z,18.1
2017-10-11T05:09:11.349Z,18.1
2017-10-11T05:10:13.773Z,18.1
2017-10-11T05:11:16.205Z,18
2017-10-11T05:12:18.645Z,18
2017-10-11T05:13:21.078Z,18
2017-10-11T05:14:23.516Z,18
2017-10-11T05:15:25.942Z,18
2017-10-11T05:16:28.373Z,17.9
2017-10-11T05:17:30.812Z,17.9
2017-10-11T05:18:33.242Z,17.9
2017-10-11T05:19:35.666Z,17.9
2017-10-11T05:20:38.459Z,17.9
2017-10-11T05:21:40.895Z,17.9
2017-10-11T05:22:43.329Z,17.9
2017-10-11T05:23:45.767Z,17.9
2017-10-11T05:24:48.189Z,17.9
2017-10-11T05:25:50.624Z,17.9
2017-10-11T05:26:53.067Z,17.9
2017-10-11T05:27:55.506Z,17.9
2017-10-11T05:28:57.933Z,17.9
2017-10-11T05:30:00.733Z,17.9
2017-10-11T05:31:03.517Z,17.9
2017-10-11T05:32:05.959Z,17.9
2017-10-11T05:33:08.392Z,17.9
2017-10-11T05:34:11.178Z,17.9
2017-10-11T05:35:13.612Z,17.9
2017-10-11T05:36:16.055Z,17.9
2017-10-11T05:37:18.484Z,17.9
2017-10-11T05:38:20.917Z,17.9
2017-10-11T05:39:23.351Z,17.9
2017-10-11T05:40:25.790Z,17.9
2017-10-11T05:41:28.947Z,17.9
2017-10-11T05:42:31.734Z,17.9
2017-10-11T05:43:34.157Z,17.9
2017-10-11T05:44:36.966Z,17.9
2017-10-11T05:45:39.395Z,17.9
2017-10-11T05:46:42.176Z,17.9
2017-10-11T05:47:44.603Z,17.9
2017-10-11T05:48:47.402Z,17.9
2017-10-11T05:49:49.841Z,17.9
2017-10-11T05:50:52.629Z,17.9
2017-10-11T05:51:55.062Z,17.9
2017-10-11T05:52:57.482Z,17.9
2017-10-11T05:53:59.914Z,18
2017-10-11T05:55:02.707Z,18
2017-10-11T05:56:05.139Z,17.9
2017-10-11T05:57:07.574Z,17.9
2017-10-11T05:58:10.018Z,17.9
2017-10-11T05:59:12.440Z,17.9
2017-10-11T06:00:15.243Z,18
2017-10-11T06:01:17.681Z,17.9
2017-10-11T06:02:20.489Z,18
2017-10-11T06:03:22.920Z,17.9
2017-10-11T06:04:25.356Z,17.9
2017-10-11T06:05:27.785Z,17.9
2017-10-11T06:06:30.239Z,17.9
2017-10-11T06:07:33.012Z,17.9
2017-10-11T06:08:35.452Z,17.9
2017-10-11T06:09:37.884Z,17.9
2017-10-11T06:10:40.328Z,17.9
2017-10-11T06:11:42.752Z,17.9
2017-10-11T06:12:45.188Z,17.9
2017-10-11T06:13:47.624Z,17.9
2017-10-11T06:14:50.059Z,17.9
2017-10-11T06:15:52.490Z,17.9
2017-10-11T06:16:55.279Z,17.9
2017-10-11T06:17:57.707Z,17.9
2017-10-11T06:19:00.154Z,17.9
2017-10-11T06:20:02.585Z,17.9
2017-10-11T06:21:05.016Z,18
2017-10-11T06:22:07.451Z,18
2017-10-11T06:23:09.885Z,18
2017-10-11T06:24:12.303Z,18
2017-10-11T06:25:14.742Z,18
2017-10-11T06:26:17.186Z,18
2017-10-11T06:27:19.980Z,18
2017-10-11T06:28:22.767Z,18
2017-10-11T06:29:25.553Z,18
2017-10-11T06:30:27.983Z,18
2017-10-11T06:31:30.430Z,18
2017-10-11T06:32:33.218Z,18
2017-10-11T06:33:35.652Z,18
2017-10-11T06:34:38.082Z,18
2017-10-11T06:35:40.523Z,18
2017-10-11T06:36:42.950Z,18
2017-10-11T06:37:45.393Z,18
2017-10-11T06:38:47.828Z,18
2017-10-11T06:39:50.251Z,18
2017-10-11T06:40:52.681Z,18
2017-10-11T06:41:55.118Z,18
2017-10-11T06:42:57.545Z,18
2017-10-11T06:43:59.987Z,18
2017-10-11T06:45:02.411Z,18
2017-10-11T06:46:04.850Z,18
2017-10-11T06:47:07.285Z,18
2017-10-11T06:48:09.719Z,18
2017-10-11T06:49:12.151Z,18
2017-10-11T06:50:14.582Z,18
2017-10-11T06:51:17.014Z,18
2017-10-11T06:52:19.440Z,18.1
2017-10-11T06:53:21.876Z,18.1
2017-10-11T06:54:24.301Z,18.1
2017-10-11T06:55:26.726Z,18.1
2017-10-11T06:56:29.164Z,18.1
2017-10-11T06:57:31.607Z,18.2
2017-10-11T06:58:34.387Z,18.2
2017-10-11T06:59:36.831Z,18.2
2017-10-11T07:00:39.261Z,18.2
2017-10-11T07:01:41.697Z,18.2
2017-10-11T07:02:44.136Z,18.2
2017-10-11T07:03:46.578Z,18.2
2017-10-11T07:04:49.364Z,18.2
2017-10-11T07:05:51.796Z,18.2
2017-10-11T07:06:54.219Z,18.2
2017-10-11T07:07:56.655Z,18.2
2017-10-11T07:08:59.090Z,18.2
2017-10-11T07:10:01.525Z,18.2
2017-10-11T07:11:04.315Z,18.3
2017-10-11T07:12:06.754Z,18.3
2017-10-11T07:13:09.188Z,18.2
2017-10-11T07:14:11.632Z,18.3
2017-10-11T07:15:14.061Z,18.3
2017-10-11T07:16:16.494Z,18.3
2017-10-11T07:17:18.921Z,18.3
2017-10-11T07:18:21.368Z,18.3
2017-10-11T07:19:23.795Z,18.3
2017-10-11T07:20:26.232Z,18.3
2017-10-11T07:21:28.653Z,18.3
2017-10-11T07:22:31.094Z,18.3
2017-10-11T07:23:33.526Z,18.3
2017-10-11T07:24:35.965Z,18.3
2017-10-11T07:25:38.396Z,18.3
2017-10-11T07:26:40.835Z,18.3
2017-10-11T07:27:43.633Z,18.3
2017-10-11T07:28:46.437Z,18.3
2017-10-11T07:29:48.874Z,18.3
2017-10-11T07:30:52.025Z,18.3
2017-10-11T07:31:54.450Z,18.3
2017-10-11T07:32:56.893Z,18.3
2017-10-11T07:33:59.328Z,18.3
2017-10-11T07:35:01.770Z,18.3
2017-10-11T07:36:04.197Z,18.4
2017-10-11T07:37:06.620Z,18.4
2017-10-11T07:38:09.055Z,18.4
2017-10-11T07:39:11.489Z,18.4
2017-10-11T07:40:13.912Z,18.4
2017-10-11T07:41:16.346Z,18.4
2017-10-11T07:42:18.798Z,18.4
2017-10-11T07:43:21.232Z,18.4
2017-10-11T07:44:23.683Z,18.4
2017-10-11T07:45:26.103Z,18.4
2017-10-11T07:46:28.538Z,18.5
2017-10-11T07:47:31.337Z,18.5
2017-10-11T07:48:33.769Z,18.5
2017-10-11T07:49:36.190Z,18.5
2017-10-11T07:50:38.992Z,18.5
2017-10-11T07:51:41.423Z,18.5
2017-10-11T07:52:44.218Z,18.5
2017-10-11T07:53:46.651Z,18.5
2017-10-11T07:54:49.100Z,18.5
2017-10-11T07:55:51.892Z,18.5
2017-10-11T07:56:54.315Z,18.5
2017-10-11T07:57:56.759Z,18.5
2017-10-11T07:58:59.186Z,18.6
2017-10-11T08:00:01.612Z,18.6
2017-10-11T08:01:04.042Z,18.7
2017-10-11T08:02:06.822Z,18.7
2017-10-11T08:03:09.612Z,18.7
2017-10-11T08:04:12.063Z,18.7
2017-10-11T08:05:14.840Z,18.7
2017-10-11T08:06:17.272Z,18.7
2017-10-11T08:07:19.714Z,18.8
2017-10-11T08:08:22.137Z,18.7
2017-10-11T08:09:24.577Z,18.8
2017-10-11T08:10:27.015Z,18.8
2017-10-11T08:11:29.446Z,18.8
2017-10-11T08:12:31.879Z,18.8
2017-10-11T08:13:34.313Z,18.7
2017-10-11T08:14:36.746Z,18.8
2017-10-11T08:15:39.185Z,18.8
2017-10-11T08:16:41.618Z,18.8
2017-10-11T08:17:44.047Z,18.8
2017-10-11T08:18:46.489Z,18.8
2017-10-11T08:19:48.928Z,18.8
2017-10-11T08:20:51.359Z,18.8
2017-10-11T08:21:53.792Z,18.9
2017-10-11T08:22:56.235Z,18.9
2017-10-11T08:23:59.021Z,19
2017-10-11T08:25:01.462Z,19
2017-10-11T08:26:03.887Z,19
2017-10-11T08:27:06.319Z,19
2017-10-11T08:28:08.763Z,19
2017-10-11T08:29:11.197Z,19
2017-10-11T08:30:13.622Z,19
2017-10-11T08:31:16.054Z,19.1
2017-10-11T08:32:18.493Z,19.1
2017-10-11T08:33:20.931Z,19.1
2017-10-11T08:34:23.728Z,19.1
2017-10-11T08:35:26.171Z,19.1
2017-10-11T08:36:28.609Z,19.1
2017-10-11T08:37:31.049Z,19.1
2017-10-11T08:38:33.487Z,19.1
2017-10-11T08:39:35.910Z,19.1
2017-10-11T08:40:38.344Z,19.1
2017-10-11T08:41:40.781Z,19.1
2017-10-11T08:42:43.214Z,19.1
2017-10-11T08:43:45.646Z,19.1
2017-10-11T08:44:48.083Z,19.1
2017-10-11T08:45:50.510Z,19.2
2017-10-11T08:46:52.959Z,19.2
2017-10-11T08:47:55.390Z,19.2
2017-10-11T08:48:57.830Z,19.2
2017-10-11T08:50:00.265Z,19.2
2017-10-11T08:51:02.706Z,19.2
2017-10-11T08:52:05.135Z,19.2
2017-10-11T08:53:07.577Z,19.2
2017-10-11T08:54:10.010Z,19.3
2017-10-11T08:55:12.811Z,19.3
2017-10-11T08:56:15.596Z,19.2
2017-10-11T08:57:18.038Z,19.2
2017-10-11T08:58:20.473Z,19.2
2017-10-11T08:59:22.907Z,19.2
2017-10-11T09:00:25.345Z,19.2
2017-10-11T09:01:28.487Z,19.2
2017-10-11T09:02:30.910Z,19.2
2017-10-11T09:03:33.354Z,19.2
2017-10-11T09:04:35.779Z,19.2
2017-10-11T09:05:38.586Z,19.2
2017-10-11T09:06:41.021Z,19.2
2017-10-11T09:07:43.450Z,19.2
2017-10-11T09:08:45.877Z,19.2
2017-10-11T09:09:48.774Z,19.2
2017-10-11T09:10:51.196Z,19.2
2017-10-11T09:11:53.644Z,19.2
2017-10-11T09:12:56.419Z,19.2
2017-10-11T09:13:59.208Z,19.2
2017-10-11T09:15:01.656Z,19.2
2017-10-11T09:16:04.102Z,19.2
2017-10-11T09:17:06.527Z,19.2
2017-10-11T09:18:08.964Z,19.2
2017-10-11T09:19:11.398Z,19.2
2017-10-11T09:20:13.821Z,19.3
2017-10-11T09:21:16.613Z,19.3
2017-10-11T09:22:19.053Z,19.2
2017-10-11T09:23:21.488Z,19.3
2017-10-11T09:24:23.914Z,19.2
2017-10-11T09:25:26.351Z,19.2
2017-10-11T09:26:28.787Z,19.2
2017-10-11T09:27:31.227Z,19.2
2017-10-11T09:28:33.667Z,19.1
2017-10-11T09:29:36.098Z,19.1
2017-10-11T09:30:38.523Z,19.1
2017-10-11T09:31:40.969Z,19.1
2017-10-11T09:32:43.746Z,19
2017-10-11T09:33:46.181Z,19
2017-10-11T09:34:48.607Z,19
2017-10-11T09:35:51.043Z,19
2017-10-11T09:36:53.494Z,18.9
2017-10-11T09:37:55.930Z,18.9
2017-10-11T09:38:58.364Z,18.9
2017-10-11T09:40:00.801Z,18.9
2017-10-11T09:41:03.231Z,18.9
2017-10-11T09:42:05.674Z,18.9
2017-10-11T09:43:08.114Z,18.9
2017-10-11T09:44:10.544Z,18.9
2017-10-11T09:45:12.976Z,18.9
2017-10-11T09:46:15.773Z,18.9
2017-10-11T09:47:18.206Z,18.9
2017-10-11T09:48:20.643Z,19
2017-10-11T09:49:23.078Z,18.9
2017-10-11T09:50:25.516Z,18.9
2017-10-11T09:51:27.952Z,18.9
2017-10-11T09:52:30.392Z,18.8
2017-10-11T09:53:32.830Z,18.9
2017-10-11T09:54:35.644Z,18.8
2017-10-11T09:55:38.077Z,18.8
2017-10-11T09:56:40.509Z,18.8
2017-10-11T09:57:42.942Z,18.8
2017-10-11T09:58:45.373Z,18.8
2017-10-11T09:59:47.809Z,18.8
2017-10-11T10:00:50.240Z,18.7
2017-10-11T10:01:53.039Z,18.8
2017-10-11T10:02:55.486Z,18.8
2017-10-11T10:03:57.924Z,18.8
2017-10-11T10:05:00.360Z,18.8
2017-10-11T10:06:02.794Z,18.9
2017-10-11T10:07:05.237Z,18.9
2017-10-11T10:08:07.670Z,19
2017-10-11T10:09:10.108Z,19.1
2017-10-11T10:10:12.886Z,19.1
2017-10-11T10:11:15.335Z,19.2
2017-10-11T10:12:17.771Z,19.3
2017-10-11T10:13:20.213Z,19.4
2017-10-11T10:14:22.644Z,19.4
2017-10-11T10:15:25.077Z,19.5
2017-10-11T10:16:27.508Z,19.6
2017-10-11T10:17:29.945Z,19.6
2017-10-11T10:18:32.741Z,19.7
2017-10-11T10:19:35.165Z,19.7
2017-10-11T10:20:37.606Z,19.7
2017-10-11T10:21:40.041Z,19.7
2017-10-11T10:22:42.474Z,19.7
2017-10-11T10:23:45.262Z,19.7
2017-10-11T10:24:47.701Z,19.7
2017-10-11T10:25:50.128Z,19.6
2017-10-11T10:26:52.574Z,19.6
2017-10-11T10:27:55.004Z,19.6
2017-10-11T10:28:57.432Z,19.5
2017-10-11T10:29:59.866Z,19.5
2017-10-11T10:31:02.655Z,19.4
2017-10-11T10:32:05.097Z,19.4
2017-10-11T10:33:07.541Z,19.4
2017-10-11T10:34:09.964Z,19.4
2017-10-11T10:35:12.405Z,19.3
2017-10-11T10:36:14.843Z,19.3
2017-10-11T10:37:17.276Z,19.4
2017-10-11T10:38:19.711Z,19.4
2017-10-11T10:39:22.149Z,19.5
2017-10-11T10:40:24.577Z,19.5
2017-10-11T10:41:27.012Z,19.5
2017-10-11T10:42:29.445Z,19.5
2017-10-11T10:43:31.882Z,19.5
2017-10-11T10:44:34.310Z,19.6
2017-10-11T10:45:36.754Z,19.5
2017-10-11T10:46:39.189Z,19.5
2017-10-11T10:47:41.620Z,19.5
2017-10-11T10:48:44.064Z,19.5
2017-10-11T10:49:46.499Z,19.5
2017-10-11T10:50:48.927Z,19.5
2017-10-11T10:51:51.722Z,19.5
2017-10-11T10:52:54.169Z,19.5
2017-10-11T10:53:56.602Z,19.6
2017-10-11T10:54:59.023Z,19.6
2017-10-11T10:56:01.457Z,19.6
2017-10-11T10:57:03.889Z,19.6
2017-10-11T10:58:06.327Z,19.6
2017-10-11T10:59:08.779Z,19.6
2017-10-11T11:00:11.194Z,19.6
2017-10-11T11:01:14.338Z,19.6
2017-10-11T11:02:16.790Z,19.6
2017-10-11T11:03:19.220Z,19.6
2017-10-11T11:04:21.648Z,19.5
2017-10-11T11:05:24.449Z,19.5
2017-10-11T11:06:26.889Z,19.5
2017-10-11T11:07:29.338Z,19.4
2017-10-11T11:08:32.487Z,19.4
2017-10-11T11:09:34.911Z,19.4
2017-10-11T11:10:37.697Z,19.4
2017-10-11T11:11:40.487Z,19.4
2017-10-11T11:12:42.926Z,19.4
2017-10-11T11:13:45.726Z,19.4
2017-10-11T11:14:48.151Z,19.3
2017-10-11T11:15:50.586Z,19.3
2017-10-11T11:16:53.035Z,19.3
2017-10-11T11:17:55.830Z,19.2
2017-10-11T11:18:58.283Z,19.3
2017-10-11T11:20:00.722Z,19.2
2017-10-11T11:21:03.155Z,19.3
2017-10-11T11:22:05.946Z,19.3
2017-10-11T11:23:08.381Z,19.2
2017-10-11T11:24:10.810Z,19.2
2017-10-11T11:25:13.255Z,19.2
2017-10-11T11:26:15.679Z,19.2
2017-10-11T11:27:18.115Z,19.1
2017-10-11T11:28:20.563Z,19.1
2017-10-11T11:29:22.995Z,19.1
2017-10-11T11:30:25.429Z,19
2017-10-11T11:31:27.863Z,19
2017-10-11T11:32:30.290Z,19
2017-10-11T11:33:33.096Z,19
2017-10-11T11:34:35.535Z,19
2017-10-11T11:35:37.965Z,19
2017-10-11T11:36:40.757Z,19
2017-10-11T11:37:43.197Z,19
2017-10-11T11:38:45.619Z,19
2017-10-11T11:39:48.064Z,18.9
2017-10-11T11:40:50.491Z,18.9
2017-10-11T11:41:52.926Z,18.9
2017-10-11T11:42:55.380Z,18.9
2017-10-11T11:43:58.172Z,18.9
2017-10-11T11:45:00.609Z,18.9
2017-10-11T11:46:03.051Z,18.8
2017-10-11T11:47:05.483Z,18.9
2017-10-11T11:48:07.916Z,18.8
2017-10-11T11:49:10.349Z,18.8
2017-10-11T11:50:12.799Z,18.8
2017-10-11T11:51:15.233Z,18.8
2017-10-11T11:52:17.663Z,18.8
2017-10-11T11:53:20.480Z,18.8
2017-10-11T11:54:22.909Z,18.8
2017-10-11T11:55:25.345Z,18.8
2017-10-11T11:56:27.781Z,18.8
2017-10-11T11:57:30.210Z,18.8
2017-10-11T11:58:32.648Z,18.8
2017-10-11T11:59:35.086Z,18.8
2017-10-11T12:00:37.521Z,18.7
2017-10-11T12:01:39.958Z,18.7
2017-10-11T12:02:42.402Z,18.7
2017-10-11T12:03:44.838Z,18.7
2017-10-11T12:04:47.289Z,18.6
2017-10-11T12:05:50.452Z,18.7
2017-10-11T12:06:52.876Z,18.7
2017-10-11T12:07:55.318Z,18.7
2017-10-11T12:08:57.748Z,18.7
2017-10-11T12:10:00.186Z,18.7
2017-10-11T12:11:02.618Z,18.7
2017-10-11T12:12:05.404Z,18.7
2017-10-11T12:13:07.843Z,18.7
2017-10-11T12:14:10.299Z,18.7
2017-10-11T12:15:12.723Z,18.7
2017-10-11T12:16:15.156Z,18.6
2017-10-11T12:17:17.588Z,18.6
2017-10-11T12:18:20.023Z,18.6
2017-10-11T12:19:22.463Z,18.6
2017-10-11T12:20:24.899Z,18.6
2017-10-11T12:21:27.337Z,18.6
2017-10-11T12:22:29.776Z,18.6
2017-10-11T12:23:32.206Z,18.6
2017-10-11T12:24:34.642Z,18.6
2017-10-11T12:25:37.083Z,18.6
2017-10-11T12:26:39.510Z,18.6
2017-10-11T12:27:41.951Z,18.5
2017-10-11T12:28:44.740Z,18.6
2017-10-11T12:29:47.175Z,18.6
2017-10-11T12:30:49.614Z,18.6
2017-10-11T12:31:52.044Z,18.6
2017-10-11T12:32:54.478Z,18.6
2017-10-11T12:33:57.626Z,18.6
2017-10-11T12:35:00.054Z,18.6
2017-10-11T12:36:02.489Z,18.6
2017-10-11T12:37:04.923Z,18.6
2017-10-11T12:38:07.731Z,18.6
2017-10-11T12:39:10.171Z,18.6
2017-10-11T12:40:12.605Z,18.6
2017-10-11T12:41:15.037Z,18.6
2017-10-11T12:42:17.484Z,18.6
2017-10-11T12:43:19.918Z,18.6
2017-10-11T12:44:22.360Z,18.6
2017-10-11T12:45:25.161Z,18.6
2017-10-11T12:46:27.594Z,18.7
2017-10-11T12:47:30.025Z,18.7
2017-10-11T12:48:32.479Z,18.6
2017-10-11T12:49:34.912Z,18.7
2017-10-11T12:50:37.358Z,18.7
2017-10-11T12:51:39.777Z,18.7
2017-10-11T12:52:42.215Z,18.7
2017-10-11T12:53:44.646Z,18.7
2017-10-11T12:54:47.078Z,18.7
2017-10-11T12:55:49.509Z,18.7
2017-10-11T12:56:51.942Z,18.8
2017-10-11T12:57:54.729Z,18.8
2017-10-11T12:58:57.168Z,18.7
2017-10-11T12:59:59.606Z,18.7
2017-10-11T13:01:02.036Z,18.8
2017-10-11T13:02:04.466Z,18.8
2017-10-11T13:03:06.905Z,18.8
2017-10-11T13:04:09.340Z,18.8
2017-10-11T13:05:12.136Z,18.8
2017-10-11T13:06:14.563Z,18.9
2017-10-11T13:07:17.004Z,18.8
2017-10-11T13:08:19.443Z,18.8
2017-10-11T13:09:21.877Z,18.8
2017-10-11T13:10:24.307Z,18.9
2017-10-11T13:11:26.739Z,18.8
2017-10-11T13:12:29.168Z,18.8
2017-10-11T13:13:31.620Z,18.8
2017-10-11T13:14:34.398Z,18.8
2017-10-11T13:15:37.563Z,18.8
2017-10-11T13:16:39.992Z,18.9
2017-10-11T13:17:42.434Z,18.9
2017-10-11T13:18:44.875Z,18.9
2017-10-11T13:19:47.318Z,18.9
2017-10-11T13:20:49.737Z,18.9
2017-10-11T13:21:52.175Z,18.9
2017-10-11T13:22:54.613Z,18.9
2017-10-11T13:23:57.048Z,18.9
2017-10-11T13:24:59.845Z,18.9
2017-10-11T13:26:02.288Z,18.9
2017-10-11T13:27:04.719Z,18.9
2017-10-11T13:28:07.168Z,18.9
2017-10-11T13:29:09.598Z,19
2017-10-11T13:30:12.034Z,19
2017-10-11T13:31:14.473Z,19
2017-10-11T13:32:16.909Z,19
2017-10-11T13:33:19.340Z,19
2017-10-11T13:34:21.791Z,19
2017-10-11T13:35:24.227Z,19
2017-10-11T13:36:26.664Z,19
2017-10-11T13:37:29.095Z,19
2017-10-11T13:38:31.525Z,19
2017-10-11T13:39:33.971Z,19
2017-10-11T13:40:36.407Z,19
2017-10-11T13:41:38.837Z,19
2017-10-11T13:42:41.272Z,19
2017-10-11T13:43:43.706Z,19
2017-10-11T13:44:46.147Z,19
2017-10-11T13:45:48.577Z,19
2017-10-11T13:46:51.733Z,19
2017-10-11T13:47:54.539Z,19
2017-10-11T13:48:56.973Z,19
2017-10-11T13:49:59.410Z,19
2017-10-11T13:51:01.836Z,19
2017-10-11T13:52:04.266Z,19
2017-10-11T13:53:06.706Z,19
2017-10-11T13:54:09.138Z,19
2017-10-11T13:55:24.289Z,19
2017-10-11T13:56:26.671Z,19
2017-10-11T13:57:29.047Z,19
2017-10-11T13:58:31.438Z,19
2017-10-11T13:59:33.818Z,19
2017-10-11T14:00:36.204Z,19
2017-10-11T14:01:38.575Z,19
2017-10-11T14:02:40.960Z,19
2017-10-11T14:03:43.342Z,19
2017-10-11T14:04:45.727Z,19
2017-10-11T14:05:48.101Z,19